Time;durP1;ratioP1;P1;durP2;ratioP2;P2;SDS_P1;SDS_P2;PMS_P1;PMS_P2;Temp;Humidity;BMP_temperature;BMP_pressure;BME280_temperature;BME280_humidity;BME280_pressure;Samples;Min_cycle;Max_cycle;Signal;HPM_P1;HPM_P2
2023/08/30 00:01:05;;;;;;;16.17;14.52;;;;;;;;;;5090114;28;20070;-72
2023/08/30 00:03:31;;;;;;;14.45;12.85;;;;;;;;;;5074613;28;20027;-70
2023/08/30 00:06:02;;;;;;;14.35;12.23;;;;;;;;;;5059042;28;20058;-70
2023/08/30 00:08:27;;;;;;;19.60;14.18;;;;;;;;;;5091631;28;20020;-70
2023/08/30 00:10:52;;;;;;;18.38;14.52;;;;;;;;;;5078669;28;20438;-70
2023/08/30 00:13:17;;;;;;;18.53;14.10;;;;;;;;;;5082822;28;20028;-72
2023/08/30 00:15:43;;;;;;;18.85;16.85;;;;;;;;;;5086033;28;20285;-72
2023/08/30 00:18:08;;;;;;;17.70;15.90;;;;;;;;;;5078350;28;20469;-72
2023/08/30 00:20:33;;;;;;;18.27;15.57;;;;;;;;;;5078858;28;20035;-72
2023/08/30 00:22:59;;;;;;;19.30;16.55;;;;;;;;;;5092078;28;20292;-72
2023/08/30 00:25:24;;;;;;;21.05;18.27;;;;;;;;;;5091509;28;20126;-72
2023/08/30 00:27:49;;;;;;;21.65;17.52;;;;;;;;;;5091650;28;20039;-72
2023/08/30 00:30:15;;;;;;;20.83;17.05;;;;;;;;;;5083889;28;20027;-71
2023/08/30 00:32:40;;;;;;;21.75;18.48;;;;;;;;;;5078641;28;20376;-71
2023/08/30 00:35:05;;;;;;;21.20;18.60;;;;;;;;;;5080964;28;20106;-73
2023/08/30 00:37:31;;;;;;;20.95;18.77;;;;;;;;;;5074532;28;20025;-72
2023/08/30 00:39:56;;;;;;;22.55;20.17;;;;;;;;;;5083463;28;20441;-72
2023/08/30 00:42:21;;;;;;;20.35;18.38;;;;;;;;;;5076404;28;20020;-72
2023/08/30 00:44:46;;;;;;;22.17;20.00;;;;;;;;;;5077922;28;20030;-71
2023/08/30 00:47:12;;;;;;;26.75;20.27;;;;;;;;;;5075597;28;20020;-73
2023/08/30 00:49:37;;;;;;;23.15;20.77;;;;;;;;;;5090776;28;20026;-72
2023/08/30 00:52:06;;;;;;;24.92;22.25;;;;;;;;;;5088839;28;20024;-73
2023/08/30 00:54:31;;;;;;;22.85;20.65;;;;;;;;;;5091243;28;20024;-72
2023/08/30 00:56:57;;;;;;;23.58;21.10;;;;;;;;;;5090718;28;20356;-72
2023/08/30 00:59:22;;;;;;;26.45;22.52;;;;;;;;;;5091990;28;20023;-72
2023/08/30 01:01:48;;;;;;;23.63;21.20;;;;;;;;;;5090310;28;20130;-72
2023/08/30 01:04:14;;;;;;;26.30;23.52;;;;;;;;;;5071541;28;20041;-72
2023/08/30 01:06:40;;;;;;;26.23;21.15;;;;;;;;;;5071574;28;20093;-72
2023/08/30 01:09:06;;;;;;;24.95;20.83;;;;;;;;;;5071466;28;20013;-72
2023/08/30 01:11:43;;;;;;;22.95;20.55;;;;;;;;;;5072199;28;20020;-72
2023/08/30 01:14:12;;;;;;;23.50;21.08;;;;;;;;;;5074992;28;20100;-72
2023/08/30 01:16:37;;;;;;;23.90;21.50;;;;;;;;;;5082438;28;20375;-72
2023/08/30 01:19:10;;;;;;;24.13;20.60;;;;;;;;;;5073949;28;20036;-72
2023/08/30 01:21:48;;;;;;;23.48;21.02;;;;;;;;;;5091777;28;20378;-72
2023/08/30 01:24:20;;;;;;;19.92;17.85;;;;;;;;;;5090786;28;20020;-72
2023/08/30 01:26:50;;;;;;;21.38;19.25;;;;;;;;;;5091544;28;20020;-72
2023/08/30 01:29:16;;;;;;;25.45;19.08;;;;;;;;;;5053540;28;20506;-72
2023/08/30 01:31:42;;;;;;;20.35;18.40;;;;;;;;;;5071790;28;20111;-71
2023/08/30 01:34:07;;;;;;;23.75;18.83;;;;;;;;;;5072069;28;20040;-73
2023/08/30 01:36:33;;;;;;;17.98;16.08;;;;;;;;;;5072099;28;20028;-73
2023/08/30 01:38:59;;;;;;;19.55;16.73;;;;;;;;;;5078875;28;20039;-73
2023/08/30 01:41:26;;;;;;;28.05;19.27;;;;;;;;;;5091168;28;20020;-72
2023/08/30 01:43:52;;;;;;;21.58;18.58;;;;;;;;;;5084843;28;20086;-70
2023/08/30 01:46:19;;;;;;;24.33;20.52;;;;;;;;;;5071238;28;20428;-70
2023/08/30 01:48:45;;;;;;;24.40;21.65;;;;;;;;;;5085064;28;20012;-71
2023/08/30 01:51:10;;;;;;;20.55;18.55;;;;;;;;;;5084201;28;20028;-70
2023/08/30 01:53:36;;;;;;;26.73;22.15;;;;;;;;;;5090630;28;20031;-71
2023/08/30 01:56:01;;;;;;;26.52;21.70;;;;;;;;;;5091141;28;20130;-71
2023/08/30 01:58:26;;;;;;;22.48;19.90;;;;;;;;;;5090862;28;20359;-72
2023/08/30 02:00:52;;;;;;;25.85;21.63;;;;;;;;;;5091084;28;20466;-71
2023/08/30 02:03:17;;;;;;;27.50;23.15;;;;;;;;;;5088029;28;20028;-75
2023/08/30 02:06:01;;;;;;;24.77;22.10;;;;;;;;;;5078217;28;21371;-73
2023/08/30 02:08:30;;;;;;;24.63;21.57;;;;;;;;;;5082998;28;20102;-74
2023/08/30 02:10:58;;;;;;;25.75;21.58;;;;;;;;;;5086215;28;20294;-71
2023/08/30 02:13:26;;;;;;;26.60;22.08;;;;;;;;;;5087399;28;20360;-72
2023/08/30 02:15:54;;;;;;;25.23;22.65;;;;;;;;;;5087633;28;20107;-72
2023/08/30 02:18:20;;;;;;;25.08;22.38;;;;;;;;;;5091469;28;20028;-72
2023/08/30 02:20:45;;;;;;;23.80;21.48;;;;;;;;;;5077612;28;20016;-72
2023/08/30 02:23:11;;;;;;;25.73;22.05;;;;;;;;;;5091494;28;20020;-72
2023/08/30 02:25:36;;;;;;;24.48;21.95;;;;;;;;;;5086962;28;20483;-72
2023/08/30 02:28:01;;;;;;;27.42;24.55;;;;;;;;;;5087009;28;20056;-72
2023/08/30 02:30:26;;;;;;;25.23;22.63;;;;;;;;;;5088091;28;20031;-71
2023/08/30 02:32:54;;;;;;;26.20;22.93;;;;;;;;;;5081444;28;20031;-70
2023/08/30 02:35:19;;;;;;;28.40;24.25;;;;;;;;;;5092539;28;20288;-71
2023/08/30 02:37:45;;;;;;;30.08;24.88;;;;;;;;;;5092898;28;20034;-71
2023/08/30 02:40:10;;;;;;;25.20;22.67;;;;;;;;;;5091156;28;20017;-71
2023/08/30 02:42:35;;;;;;;24.40;21.70;;;;;;;;;;5089164;28;20292;-70
2023/08/30 02:45:01;;;;;;;28.45;23.63;;;;;;;;;;5085799;28;20478;-71
2023/08/30 02:47:26;;;;;;;24.48;22.15;;;;;;;;;;5083919;28;20020;-71
2023/08/30 02:49:52;;;;;;;25.60;23.10;;;;;;;;;;5083817;28;20028;-71
2023/08/30 02:52:17;;;;;;;27.25;23.55;;;;;;;;;;5082666;28;20050;-71
2023/08/30 02:54:42;;;;;;;25.40;22.80;;;;;;;;;;5080994;28;20027;-71
2023/08/30 02:57:08;;;;;;;25.53;23.00;;;;;;;;;;5082585;28;20094;-71
2023/08/30 02:59:33;;;;;;;26.13;22.20;;;;;;;;;;5083514;28;20682;-71
2023/08/30 03:01:58;;;;;;;28.88;21.88;;;;;;;;;;5083035;28;21622;-71
2023/08/30 03:04:24;;;;;;;24.97;22.53;;;;;;;;;;5084508;28;20030;-71
2023/08/30 03:06:49;;;;;;;29.23;23.33;;;;;;;;;;5082877;28;20270;-71
2023/08/30 03:09:14;;;;;;;25.02;22.40;;;;;;;;;;5083520;28;20263;-71
2023/08/30 03:11:39;;;;;;;24.87;22.17;;;;;;;;;;5073866;28;20427;-71
2023/08/30 03:14:05;;;;;;;27.75;21.85;;;;;;;;;;5073592;28;20267;-71
2023/08/30 03:16:30;;;;;;;24.23;21.73;;;;;;;;;;5074322;28;20029;-71
2023/08/30 03:18:55;;;;;;;23.25;20.80;;;;;;;;;;5074470;28;20459;-70
2023/08/30 03:21:21;;;;;;;25.15;22.48;;;;;;;;;;5074141;28;20078;-71
2023/08/30 03:23:46;;;;;;;26.08;21.33;;;;;;;;;;5087847;28;20429;-71
2023/08/30 03:26:12;;;;;;;24.17;21.30;;;;;;;;;;5072097;28;20024;-71
2023/08/30 03:28:37;;;;;;;22.67;20.40;;;;;;;;;;5074511;28;20736;-70
2023/08/30 03:31:10;;;;;;;22.40;20.10;;;;;;;;;;5076307;28;20036;-71
2023/08/30 03:33:36;;;;;;;23.88;20.92;;;;;;;;;;5077506;28;20039;-70
2023/08/30 03:36:01;;;;;;;23.15;20.83;;;;;;;;;;5073346;28;20386;-70
2023/08/30 03:38:26;;;;;;;25.05;22.35;;;;;;;;;;5073310;28;20027;-70
2023/08/30 03:40:55;;;;;;;25.92;23.17;;;;;;;;;;5082871;28;20117;-71
2023/08/30 03:43:20;;;;;;;24.88;22.27;;;;;;;;;;5092703;28;20043;-71
2023/08/30 03:45:45;;;;;;;27.27;22.83;;;;;;;;;;5093392;28;20097;-69
2023/08/30 03:48:11;;;;;;;26.90;23.08;;;;;;;;;;5076393;28;20059;-71
2023/08/30 03:50:36;;;;;;;27.03;24.00;;;;;;;;;;5075336;28;20025;-71
2023/08/30 03:53:01;;;;;;;24.50;21.90;;;;;;;;;;5092535;28;20270;-71
2023/08/30 03:55:27;;;;;;;26.63;23.17;;;;;;;;;;5093141;28;20405;-71
2023/08/30 03:57:52;;;;;;;31.50;24.00;;;;;;;;;;5088992;28;20463;-71
2023/08/30 04:00:17;;;;;;;27.70;23.73;;;;;;;;;;5085064;28;20028;-70
2023/08/30 04:02:44;;;;;;;25.83;23.23;;;;;;;;;;5083818;28;20313;-71
2023/08/30 04:05:09;;;;;;;26.58;23.63;;;;;;;;;;5084564;28;20463;-71
2023/08/30 04:07:37;;;;;;;27.90;24.10;;;;;;;;;;5075817;28;20074;-70
2023/08/30 04:10:06;;;;;;;25.55;23.05;;;;;;;;;;5080056;28;20621;-71
2023/08/30 04:12:31;;;;;;;26.58;23.40;;;;;;;;;;5088005;28;20020;-71
2023/08/30 04:14:56;;;;;;;26.83;24.23;;;;;;;;;;5092471;28;20495;-71
2023/08/30 04:17:21;;;;;;;26.67;23.97;;;;;;;;;;5089961;28;20080;-71
2023/08/30 04:19:47;;;;;;;25.98;23.20;;;;;;;;;;5082284;28;20270;-71
2023/08/30 04:22:12;;;;;;;26.23;23.60;;;;;;;;;;5072852;28;20028;-71
2023/08/30 04:24:37;;;;;;;27.40;24.47;;;;;;;;;;5072690;28;20383;-71
2023/08/30 04:27:02;;;;;;;25.52;22.98;;;;;;;;;;5085295;28;20641;-70
2023/08/30 04:29:28;;;;;;;23.75;21.30;;;;;;;;;;5084243;28;20020;-71
2023/08/30 04:31:54;;;;;;;25.13;22.50;;;;;;;;;;5084432;28;20069;-70
2023/08/30 04:34:19;;;;;;;28.35;24.02;;;;;;;;;;5079338;28;20036;-70
2023/08/30 04:36:44;;;;;;;26.67;23.95;;;;;;;;;;5079149;28;20039;-70
2023/08/30 04:39:10;;;;;;;27.02;24.27;;;;;;;;;;5079758;28;20032;-70
2023/08/30 04:41:35;;;;;;;25.33;22.77;;;;;;;;;;5086124;28;20032;-70
2023/08/30 04:44:00;;;;;;;26.65;23.95;;;;;;;;;;5092146;28;20479;-70
2023/08/30 04:46:25;;;;;;;25.07;22.40;;;;;;;;;;5091591;28;20081;-70
2023/08/30 04:48:51;;;;;;;27.30;22.30;;;;;;;;;;5073032;28;20286;-70
2023/08/30 04:51:16;;;;;;;24.60;22.13;;;;;;;;;;5076681;28;20265;-70
2023/08/30 04:53:42;;;;;;;25.40;22.90;;;;;;;;;;5072741;28;20306;-71
2023/08/30 04:56:14;;;;;;;24.52;22.02;;;;;;;;;;5072802;28;20796;-70
2023/08/30 04:58:39;;;;;;;25.02;22.25;;;;;;;;;;5079294;28;20031;-70
2023/08/30 05:01:04;;;;;;;23.97;21.73;;;;;;;;;;5090575;28;20024;-71
2023/08/30 05:03:30;;;;;;;25.48;22.80;;;;;;;;;;5084535;28;20283;-70
2023/08/30 05:05:55;;;;;;;23.25;20.85;;;;;;;;;;5072488;28;20489;-71
2023/08/30 05:08:20;;;;;;;26.47;23.57;;;;;;;;;;5073287;28;20077;-70
2023/08/30 05:10:46;;;;;;;26.37;22.70;;;;;;;;;;5085162;28;20764;-71
2023/08/30 05:13:11;;;;;;;28.67;24.20;;;;;;;;;;5079560;28;20752;-71
2023/08/30 05:15:37;;;;;;;25.67;22.98;;;;;;;;;;5077176;28;20024;-71
2023/08/30 05:18:02;;;;;;;31.27;23.98;;;;;;;;;;5072363;28;20032;-71
2023/08/30 05:20:27;;;;;;;23.48;20.98;;;;;;;;;;5079810;28;20072;-71
2023/08/30 05:22:52;;;;;;;26.17;23.57;;;;;;;;;;5072728;28;20058;-71
2023/08/30 05:25:18;;;;;;;27.20;24.40;;;;;;;;;;5073050;28;20761;-71
2023/08/30 05:27:43;;;;;;;25.95;23.10;;;;;;;;;;5077879;28;20708;-71
2023/08/30 05:30:08;;;;;;;24.30;21.67;;;;;;;;;;5087221;28;20127;-71
2023/08/30 05:32:34;;;;;;;24.67;22.10;;;;;;;;;;5080581;28;20017;-71
2023/08/30 05:34:59;;;;;;;23.83;21.33;;;;;;;;;;5082043;28;20035;-71
2023/08/30 05:37:24;;;;;;;24.70;22.23;;;;;;;;;;5042782;28;20056;-71
2023/08/30 05:39:49;;;;;;;24.52;22.00;;;;;;;;;;5044421;28;21193;-71
2023/08/30 05:42:15;;;;;;;22.85;20.67;;;;;;;;;;5034180;28;20075;-71
2023/08/30 05:44:40;;;;;;;23.42;20.95;;;;;;;;;;5040505;28;20148;-71
2023/08/30 05:47:05;;;;;;;23.85;21.35;;;;;;;;;;5042076;28;20123;-71
2023/08/30 05:49:31;;;;;;;24.38;20.15;;;;;;;;;;5042230;28;20108;-71
2023/08/30 05:51:56;;;;;;;22.23;19.92;;;;;;;;;;5035913;28;20028;-71
2023/08/30 05:54:21;;;;;;;19.77;17.77;;;;;;;;;;5036733;28;20363;-71
2023/08/30 05:56:47;;;;;;;21.48;19.33;;;;;;;;;;5038907;28;20173;-71
2023/08/30 05:59:12;;;;;;;20.10;18.10;;;;;;;;;;5051948;28;20032;-71
2023/08/30 06:01:37;;;;;;;23.98;17.67;;;;;;;;;;5088819;28;20024;-71
2023/08/30 06:04:04;;;;;;;17.07;15.33;;;;;;;;;;5093655;28;20035;-71
2023/08/30 06:06:29;;;;;;;17.88;15.80;;;;;;;;;;5092463;28;20318;-71
2023/08/30 06:08:54;;;;;;;15.75;14.20;;;;;;;;;;5093527;28;20551;-70
2023/08/30 06:11:20;;;;;;;16.83;13.57;;;;;;;;;;5074365;28;20948;-71
2023/08/30 06:13:45;;;;;;;14.32;12.82;;;;;;;;;;5047810;28;20756;-72
2023/08/30 06:16:10;;;;;;;13.73;11.73;;;;;;;;;;5034575;28;20139;-71
2023/08/30 06:18:37;;;;;;;14.68;12.43;;;;;;;;;;5067127;28;20353;-70
2023/08/30 06:21:03;;;;;;;13.00;11.48;;;;;;;;;;5094161;28;20020;-70
2023/08/30 06:23:29;;;;;;;17.67;9.82;;;;;;;;;;5094187;28;20438;-70
2023/08/30 06:25:54;;;;;;;10.60;9.50;;;;;;;;;;5092956;28;20016;-70
2023/08/30 06:28:20;;;;;;;13.20;10.10;;;;;;;;;;5094152;28;20031;-70
2023/08/30 06:30:45;;;;;;;11.73;9.25;;;;;;;;;;5093837;28;20048;-70
2023/08/30 06:33:11;;;;;;;9.52;8.48;;;;;;;;;;5094269;28;20030;-70
2023/08/30 06:35:38;;;;;;;10.52;8.73;;;;;;;;;;5093344;28;20050;-70
2023/08/30 06:38:04;;;;;;;10.15;8.02;;;;;;;;;;5093880;28;20039;-70
2023/08/30 06:40:29;;;;;;;10.52;8.63;;;;;;;;;;5075916;28;20023;-70
2023/08/30 06:42:54;;;;;;;9.07;7.18;;;;;;;;;;5092644;28;20020;-70
2023/08/30 06:45:20;;;;;;;11.27;7.40;;;;;;;;;;5075021;28;20127;-70
2023/08/30 06:47:45;;;;;;;9.40;6.15;;;;;;;;;;5033702;28;20035;-69
2023/08/30 06:50:10;;;;;;;13.27;6.47;;;;;;;;;;5040998;28;20908;-70
2023/08/30 06:52:36;;;;;;;8.43;6.00;;;;;;;;;;5040173;28;20852;-68
2023/08/30 06:55:02;;;;;;;9.30;5.68;;;;;;;;;;5060131;28;20048;-67
2023/08/30 06:57:27;;;;;;;7.60;5.43;;;;;;;;;;5087601;28;20471;-68
2023/08/30 06:59:52;;;;;;;7.95;5.88;;;;;;;;;;5090510;28;20064;-69
2023/08/30 07:02:17;;;;;;;8.03;5.80;;;;;;;;;;5079873;28;20024;-66
2023/08/30 07:04:43;;;;;;;11.03;6.40;;;;;;;;;;5088983;28;20659;-68
2023/08/30 07:07:08;;;;;;;7.97;5.45;;;;;;;;;;5087189;28;20266;-68
2023/08/30 07:09:33;;;;;;;7.75;6.13;;;;;;;;;;5085283;28;20020;-68
2023/08/30 07:11:59;;;;;;;9.40;5.45;;;;;;;;;;5084540;28;20032;-68
2023/08/30 07:14:24;;;;;;;7.33;5.47;;;;;;;;;;5091630;28;20069;-68
2023/08/30 07:16:50;;;;;;;10.90;4.82;;;;;;;;;;5092230;28;20301;-69
2023/08/30 07:19:15;;;;;;;7.15;5.22;;;;;;;;;;5091890;28;20028;-69
2023/08/30 07:21:41;;;;;;;9.93;5.50;;;;;;;;;;5084033;28;20036;-69
2023/08/30 07:24:07;;;;;;;10.07;5.10;;;;;;;;;;5090548;28;20012;-69
2023/08/30 07:26:32;;;;;;;8.65;5.13;;;;;;;;;;5093604;28;20028;-68
2023/08/30 07:28:57;;;;;;;7.67;4.80;;;;;;;;;;5091279;28;20115;-69
2023/08/30 07:31:22;;;;;;;6.80;4.43;;;;;;;;;;5088345;28;20301;-69
2023/08/30 07:33:48;;;;;;;7.18;4.38;;;;;;;;;;5076994;28;20114;-69
2023/08/30 07:36:13;;;;;;;4.88;4.13;;;;;;;;;;5081845;28;20032;-69
2023/08/30 07:38:38;;;;;;;6.65;4.22;;;;;;;;;;5081497;28;20024;-68
2023/08/30 07:41:03;;;;;;;6.50;3.50;;;;;;;;;;5083775;28;20024;-68
2023/08/30 07:43:29;;;;;;;5.23;3.47;;;;;;;;;;5088821;28;20027;-68
2023/08/30 07:45:54;;;;;;;7.05;3.58;;;;;;;;;;5081552;28;20267;-69
2023/08/30 07:48:19;;;;;;;6.97;3.80;;;;;;;;;;5090024;28;20032;-69
2023/08/30 07:50:45;;;;;;;8.85;3.92;;;;;;;;;;5091497;28;20099;-69
2023/08/30 07:53:10;;;;;;;5.03;3.53;;;;;;;;;;5089430;28;20059;-69
2023/08/30 07:55:36;;;;;;;8.65;4.22;;;;;;;;;;5087018;28;20028;-69
2023/08/30 07:58:02;;;;;;;6.63;4.15;;;;;;;;;;5078411;28;20078;-68
2023/08/30 08:00:28;;;;;;;9.32;4.75;;;;;;;;;;5077117;28;20052;-69
2023/08/30 08:02:53;;;;;;;8.88;4.13;;;;;;;;;;5075684;28;20051;-69
2023/08/30 08:05:18;;;;;;;5.17;4.00;;;;;;;;;;5068000;28;20016;-70
2023/08/30 08:07:43;;;;;;;5.33;3.90;;;;;;;;;;5037653;28;20297;-70
2023/08/30 08:10:09;;;;;;;5.75;4.22;;;;;;;;;;5039501;28;20384;-69
2023/08/30 08:12:34;;;;;;;5.60;3.53;;;;;;;;;;5046946;28;20020;-69
2023/08/30 08:15:00;;;;;;;6.60;3.40;;;;;;;;;;5044156;28;20036;-71
2023/08/30 08:17:25;;;;;;;5.78;3.55;;;;;;;;;;5036083;28;20530;-70
2023/08/30 08:19:50;;;;;;;3.88;3.08;;;;;;;;;;5074505;28;20019;-69
2023/08/30 08:22:16;;;;;;;5.22;3.00;;;;;;;;;;5076426;28;20012;-69
2023/08/30 08:24:41;;;;;;;4.78;2.90;;;;;;;;;;5078054;28;20090;-68
2023/08/30 08:27:06;;;;;;;4.93;3.40;;;;;;;;;;5075234;28;20392;-69
2023/08/30 08:29:31;;;;;;;6.55;3.92;;;;;;;;;;5078034;28;20525;-68
2023/08/30 08:31:57;;;;;;;4.63;3.42;;;;;;;;;;5039146;28;20020;-69
2023/08/30 08:34:22;;;;;;;4.72;3.42;;;;;;;;;;5036558;28;20020;-69
2023/08/30 08:36:47;;;;;;;5.03;3.13;;;;;;;;;;5040721;28;20808;-69
2023/08/30 08:39:14;;;;;;;7.07;3.33;;;;;;;;;;5078879;28;20024;-69
2023/08/30 08:41:42;;;;;;;6.90;3.60;;;;;;;;;;5072740;28;20078;-69
2023/08/30 08:44:08;;;;;;;5.80;3.80;;;;;;;;;;5082182;28;20067;-70
2023/08/30 08:46:38;;;;;;;6.15;3.97;;;;;;;;;;5088212;28;20064;-70
2023/08/30 08:49:16;;;;;;;6.13;4.03;;;;;;;;;;5090115;28;20028;-69
2023/08/30 08:51:44;;;;;;;7.57;4.80;;;;;;;;;;5076147;28;21367;-69
2023/08/30 08:54:10;;;;;;;6.15;4.70;;;;;;;;;;5091401;28;20032;-69
2023/08/30 08:56:36;;;;;;;8.23;5.60;;;;;;;;;;5081295;28;20086;-69
2023/08/30 08:59:01;;;;;;;7.82;5.32;;;;;;;;;;5044700;28;20019;-69
2023/08/30 09:01:27;;;;;;;8.40;5.95;;;;;;;;;;5036107;28;20034;-69
2023/08/30 09:03:52;;;;;;;8.70;7.05;;;;;;;;;;5043817;28;20016;-68
2023/08/30 09:06:18;;;;;;;12.63;6.07;;;;;;;;;;5034280;28;20023;-69
2023/08/30 09:08:43;;;;;;;9.13;6.90;;;;;;;;;;5046580;28;20062;-68
2023/08/30 09:11:09;;;;;;;7.82;7.00;;;;;;;;;;5045886;28;20945;-68
2023/08/30 09:13:34;;;;;;;13.80;7.93;;;;;;;;;;5064929;28;20032;-67
2023/08/30 09:15:59;;;;;;;11.10;8.93;;;;;;;;;;5076806;28;20042;-67
2023/08/30 09:18:27;;;;;;;11.02;8.40;;;;;;;;;;5085158;28;20466;-67
2023/08/30 09:21:13;;;;;;;10.85;9.75;;;;;;;;;;5089771;28;20119;-67
2023/08/30 09:23:38;;;;;;;14.38;9.98;;;;;;;;;;5079787;28;20037;-67
2023/08/30 09:26:04;;;;;;;14.20;10.90;;;;;;;;;;5085173;28;20032;-67
2023/08/30 09:28:29;;;;;;;14.60;10.65;;;;;;;;;;5088998;28;20105;-67
2023/08/30 09:30:57;;;;;;;12.50;10.35;;;;;;;;;;5076742;28;20099;-67
2023/08/30 09:33:22;;;;;;;12.85;10.55;;;;;;;;;;5072316;28;20013;-67
2023/08/30 09:35:48;;;;;;;11.82;10.50;;;;;;;;;;5071328;28;20482;-67
2023/08/30 09:38:17;;;;;;;15.13;9.32;;;;;;;;;;5076891;28;20519;-67
2023/08/30 09:40:43;;;;;;;12.48;9.70;;;;;;;;;;5078727;28;20117;-67
2023/08/30 09:43:09;;;;;;;10.10;9.05;;;;;;;;;;5089476;28;20479;-67
2023/08/30 09:45:34;;;;;;;16.65;10.40;;;;;;;;;;5072855;28;20024;-67
2023/08/30 09:48:00;;;;;;;8.43;7.63;;;;;;;;;;5074759;28;20502;-67
2023/08/30 09:50:25;;;;;;;9.35;8.35;;;;;;;;;;5071327;28;20029;-67
2023/08/30 09:52:52;;;;;;;10.10;7.75;;;;;;;;;;5080085;28;20389;-67
2023/08/30 09:55:18;;;;;;;9.68;7.72;;;;;;;;;;5078747;28;20441;-68
2023/08/30 09:57:43;;;;;;;7.85;7.05;;;;;;;;;;5076782;28;20029;-67
2023/08/30 10:00:12;;;;;;;16.58;7.88;;;;;;;;;;5072132;28;20059;-67
2023/08/30 10:02:37;;;;;;;12.63;8.23;;;;;;;;;;5072859;28;20017;-67
2023/08/30 10:05:04;;;;;;;10.98;7.47;;;;;;;;;;5078398;28;20077;-67
2023/08/30 10:07:29;;;;;;;8.20;7.05;;;;;;;;;;5071254;28;20479;-68
2023/08/30 10:09:56;;;;;;;9.88;6.97;;;;;;;;;;5080016;28;20144;-67
2023/08/30 10:12:22;;;;;;;9.60;7.45;;;;;;;;;;5034059;28;20024;-67
2023/08/30 10:14:48;;;;;;;7.85;6.93;;;;;;;;;;5035511;28;20448;-67
2023/08/30 10:17:14;;;;;;;8.85;7.05;;;;;;;;;;5039985;28;20659;-68
2023/08/30 10:19:39;;;;;;;10.07;7.22;;;;;;;;;;5038467;28;20031;-67
2023/08/30 10:22:08;;;;;;;6.95;6.25;;;;;;;;;;5031564;28;20166;-67
2023/08/30 10:24:46;;;;;;;7.88;7.07;;;;;;;;;;5040405;28;20034;-67
2023/08/30 10:27:13;;;;;;;8.02;6.68;;;;;;;;;;5057314;28;20481;-67
2023/08/30 10:29:40;;;;;;;9.43;6.82;;;;;;;;;;5084327;28;20016;-67
2023/08/30 10:32:06;;;;;;;7.63;6.63;;;;;;;;;;5085582;28;20046;-67
2023/08/30 10:34:35;;;;;;;9.38;6.93;;;;;;;;;;5077496;28;20020;-67
2023/08/30 10:37:01;;;;;;;8.77;6.90;;;;;;;;;;5081467;28;20122;-67
2023/08/30 10:39:37;;;;;;;7.35;6.07;;;;;;;;;;5082326;28;20425;-68
2023/08/30 10:42:07;;;;;;;8.65;7.68;;;;;;;;;;5090137;28;20040;-67
2023/08/30 10:44:33;;;;;;;13.00;7.00;;;;;;;;;;5081832;28;20024;-67
2023/08/30 10:47:01;;;;;;;8.48;6.93;;;;;;;;;;5075267;28;20021;-67
2023/08/30 10:49:26;;;;;;;9.82;6.20;;;;;;;;;;5077110;28;20067;-68
2023/08/30 10:51:56;;;;;;;7.57;6.40;;;;;;;;;;5075134;28;20142;-68
2023/08/30 10:54:23;;;;;;;8.98;7.10;;;;;;;;;;5083247;28;20270;-68
2023/08/30 10:56:55;;;;;;;6.20;5.60;;;;;;;;;;5074568;28;20032;-67
2023/08/30 10:59:21;;;;;;;9.20;6.45;;;;;;;;;;5085992;28;20032;-68
2023/08/30 11:01:47;;;;;;;7.63;6.60;;;;;;;;;;5074388;28;20024;-68
2023/08/30 11:04:13;;;;;;;9.95;7.53;;;;;;;;;;5084417;28;20063;-68
2023/08/30 11:06:39;;;;;;;7.47;6.50;;;;;;;;;;5075070;28;20021;-68
2023/08/30 11:09:04;;;;;;;9.50;7.63;;;;;;;;;;5085081;28;20109;-67
2023/08/30 11:11:30;;;;;;;7.22;6.43;;;;;;;;;;5080250;28;20022;-67
2023/08/30 11:14:03;;;;;;;8.65;6.15;;;;;;;;;;5086509;28;20024;-68
2023/08/30 11:16:28;;;;;;;7.53;6.18;;;;;;;;;;5074039;28;20356;-68
2023/08/30 11:18:53;;;;;;;6.47;5.43;;;;;;;;;;5079365;28;20028;-68
2023/08/30 11:21:20;;;;;;;7.33;6.17;;;;;;;;;;5074400;28;20659;-67
2023/08/30 11:23:45;;;;;;;9.00;5.95;;;;;;;;;;5078272;28;20285;-68
2023/08/30 11:26:12;;;;;;;7.35;5.50;;;;;;;;;;5073528;28;20020;-67
2023/08/30 11:28:41;;;;;;;5.65;5.13;;;;;;;;;;5077531;28;20071;-67
2023/08/30 11:31:07;;;;;;;8.32;5.93;;;;;;;;;;5092752;28;20028;-67
2023/08/30 11:33:32;;;;;;;6.80;6.10;;;;;;;;;;5081308;28;20152;-67
2023/08/30 11:35:58;;;;;;;7.57;6.13;;;;;;;;;;5088062;28;20542;-67
2023/08/30 11:38:23;;;;;;;8.95;6.60;;;;;;;;;;5086680;28;20286;-67
2023/08/30 11:40:49;;;;;;;7.30;6.53;;;;;;;;;;5075046;28;20028;-67
2023/08/30 11:43:15;;;;;;;7.93;7.13;;;;;;;;;;5080268;28;20467;-67
2023/08/30 11:45:40;;;;;;;6.63;5.93;;;;;;;;;;5088510;28;20035;-67
2023/08/30 11:48:06;;;;;;;8.40;5.80;;;;;;;;;;5077191;28;20033;-67
2023/08/30 11:50:31;;;;;;;6.53;5.53;;;;;;;;;;5088353;28;20279;-67
2023/08/30 11:52:56;;;;;;;6.25;5.65;;;;;;;;;;5081286;28;20360;-68
2023/08/30 11:55:22;;;;;;;6.90;6.20;;;;;;;;;;5081137;28;20525;-67
2023/08/30 11:57:50;;;;;;;7.28;6.28;;;;;;;;;;5075763;28;20729;-68
2023/08/30 12:00:18;;;;;;;11.23;6.60;;;;;;;;;;5082029;28;20043;-68
2023/08/30 12:02:44;;;;;;;8.02;6.75;;;;;;;;;;5073268;28;20099;-68
2023/08/30 12:05:13;;;;;;;7.18;6.45;;;;;;;;;;5080309;28;20516;-67
2023/08/30 12:07:39;;;;;;;7.30;6.60;;;;;;;;;;5073192;28;20032;-68
2023/08/30 12:10:08;;;;;;;8.43;7.35;;;;;;;;;;5087481;28;20704;-67
2023/08/30 12:12:33;;;;;;;6.80;6.10;;;;;;;;;;5088410;28;20481;-68
2023/08/30 12:14:58;;;;;;;6.60;6.00;;;;;;;;;;5086384;28;20024;-68
2023/08/30 12:17:23;;;;;;;6.88;6.18;;;;;;;;;;5079022;28;20519;-68
2023/08/30 12:19:58;;;;;;;6.55;5.85;;;;;;;;;;5090787;28;20059;-68
2023/08/30 12:22:24;;;;;;;6.70;5.95;;;;;;;;;;5088621;28;20013;-68
2023/08/30 12:24:49;;;;;;;6.63;5.88;;;;;;;;;;5078951;28;20032;-68
2023/08/30 12:27:15;;;;;;;6.75;5.78;;;;;;;;;;5083263;28;20047;-69
2023/08/30 12:29:40;;;;;;;7.18;5.80;;;;;;;;;;5091553;28;20101;-68
2023/08/30 12:32:06;;;;;;;6.20;5.50;;;;;;;;;;5079221;28;20410;-69
2023/08/30 12:34:31;;;;;;;5.57;5.00;;;;;;;;;;5083083;28;20262;-68
2023/08/30 12:36:56;;;;;;;6.95;6.25;;;;;;;;;;5083248;28;20024;-68
2023/08/30 12:39:22;;;;;;;6.70;6.00;;;;;;;;;;5079286;28;20024;-68
2023/08/30 12:41:47;;;;;;;9.43;7.25;;;;;;;;;;5075136;28;20024;-68
2023/08/30 12:44:12;;;;;;;7.70;6.90;;;;;;;;;;5077650;28;20107;-68
2023/08/30 12:46:38;;;;;;;7.53;6.73;;;;;;;;;;5074763;28;20043;-68
2023/08/30 12:49:03;;;;;;;9.45;6.93;;;;;;;;;;5076115;28;20280;-68
2023/08/30 12:51:29;;;;;;;8.93;6.75;;;;;;;;;;5076056;28;20017;-68
2023/08/30 12:53:54;;;;;;;8.27;7.35;;;;;;;;;;5074404;28;20021;-68
2023/08/30 12:56:19;;;;;;;9.57;7.57;;;;;;;;;;5087290;28;20032;-67
2023/08/30 12:58:45;;;;;;;7.17;6.37;;;;;;;;;;5071574;28;20032;-68
2023/08/30 13:01:10;;;;;;;6.82;5.80;;;;;;;;;;5085454;28;20354;-67
2023/08/30 13:03:35;;;;;;;7.28;5.40;;;;;;;;;;5071819;28;20032;-68
2023/08/30 13:06:02;;;;;;;7.10;5.78;;;;;;;;;;5072097;28;20077;-68
2023/08/30 13:08:27;;;;;;;7.07;6.38;;;;;;;;;;5076806;28;20145;-68
2023/08/30 13:10:52;;;;;;;9.83;6.60;;;;;;;;;;5087925;28;20103;-67
2023/08/30 13:13:17;;;;;;;6.50;5.50;;;;;;;;;;5091830;28;20281;-68
2023/08/30 13:15:43;;;;;;;6.75;5.97;;;;;;;;;;5091509;28;20285;-68
2023/08/30 13:18:08;;;;;;;6.25;5.65;;;;;;;;;;5082361;28;20031;-68
2023/08/30 13:20:37;;;;;;;6.60;5.50;;;;;;;;;;5085654;28;20035;-69
2023/08/30 13:23:03;;;;;;;7.20;6.10;;;;;;;;;;5073653;28;20287;-68
2023/08/30 13:25:28;;;;;;;7.10;6.35;;;;;;;;;;5074287;28;20382;-68
2023/08/30 13:27:53;;;;;;;8.67;6.33;;;;;;;;;;5073829;28;20032;-68
2023/08/30 13:30:18;;;;;;;8.20;7.00;;;;;;;;;;5075282;28;20305;-68
2023/08/30 13:32:43;;;;;;;6.28;5.60;;;;;;;;;;5073426;28;20324;-68
2023/08/30 13:35:09;;;;;;;7.83;6.77;;;;;;;;;;5075391;28;20031;-68
2023/08/30 13:37:34;;;;;;;7.38;6.30;;;;;;;;;;5084316;28;20295;-69
2023/08/30 13:40:00;;;;;;;7.70;5.63;;;;;;;;;;5073334;28;20423;-68
2023/08/30 13:42:25;;;;;;;7.53;6.35;;;;;;;;;;5072291;28;20048;-68
2023/08/30 13:44:51;;;;;;;8.60;6.40;;;;;;;;;;5072681;28;20107;-68
2023/08/30 13:47:16;;;;;;;6.80;5.80;;;;;;;;;;5084073;28;20263;-68
2023/08/30 13:49:41;;;;;;;11.55;5.95;;;;;;;;;;5071934;28;20021;-68
2023/08/30 13:52:07;;;;;;;6.28;5.32;;;;;;;;;;5083913;28;20032;-68
2023/08/30 13:54:32;;;;;;;6.43;4.90;;;;;;;;;;5084644;28;20036;-69
2023/08/30 13:56:58;;;;;;;6.50;5.38;;;;;;;;;;5090606;28;20067;-69
2023/08/30 13:59:23;;;;;;;6.15;5.55;;;;;;;;;;5086918;28;20387;-68
2023/08/30 14:01:48;;;;;;;7.77;5.93;;;;;;;;;;5089445;28;20031;-69
2023/08/30 14:04:14;;;;;;;8.00;5.40;;;;;;;;;;5086594;28;20270;-68
2023/08/30 14:06:39;;;;;;;6.63;5.70;;;;;;;;;;5084458;28;20339;-69
2023/08/30 14:09:06;;;;;;;7.53;6.07;;;;;;;;;;5079774;28;20032;-69
2023/08/30 14:11:31;;;;;;;8.35;6.45;;;;;;;;;;5093733;28;20024;-69
2023/08/30 14:13:56;;;;;;;7.73;6.07;;;;;;;;;;5087374;28;20100;-69
2023/08/30 14:16:21;;;;;;;7.53;5.87;;;;;;;;;;5077933;28;20299;-68
2023/08/30 14:18:46;;;;;;;6.10;4.23;;;;;;;;;;5083723;28;20686;-69
2023/08/30 14:21:13;;;;;;;7.87;4.23;;;;;;;;;;5092373;28;20409;-67
2023/08/30 14:23:38;;;;;;;4.75;3.38;;;;;;;;;;5086156;28;20335;-68